Terminal Aerodrome Forecast
Issued by NWS

Home | Current Version | Previous Version | Text Only | Print | Product List | Glossary On
Versions: 1 2 3 4 5 6 7 8 9 10 11 12 13 14 15 16 17 18 19 20 21 22 23 24 25 26 27 28
000
FTUS41 KCTP 231139
TAFJST
TAF
KJST 231139Z 2312/2412 23007KT 3SM -RA BR BKN011 OVC020
      TEMPO 2312/2313 1 1/2SM +RA BR OVC009
     FM231300 22007KT 5SM -SHRA BR BKN012 OVC060
     FM231600 23013G23KT 4SM -SHRA BR OVC009
     FM232000 24013G23KT 2SM SHRA BR OVC007=

USA.gov is the U.S. government's official web portal to all federal, state and local government web resources and services.